Tiempo atmosférico en la estación meteorológica de Soria, Soria (1082 m.)



Fecha
DESCASC
Temp. máxima en grados centígrados (hora)
DESCASC
Temp. mínima en grados centígrados (hora)
DESCASC
Temp. media en grados centígrados
DESCASC
Racha de viento máxima en m/sg (hora)
DESCASC
Velocidad máxima media en intervalos de 10 minutos(hora)
DESCASC
Precipitaciones diarias en mm
DESCASC
Precipitaciones de 00:00 a 06:00 en mm
DESCASC
Precipitaciones de 06:00 a 12:00 en mm
DESCASC
Precipitaciones de 12:00 a 18:00 en mm
DESCASC
Precipitaciones de 18:00 a 24:00 en mm
DESCASC
30-11-2020 13.2 (15:00) -1.7 (08:00) 5.7 2.78 (16:30) 1.67 (15:40) 0 0 0 0 0
29-11-2020 11 (14:30) 1.6 (00:00) 6.3 4.17 (13:40) 1.94 (13:10) 0 0 0 0 0
28-11-2020 11.1 (15:20) 5.8 (00:00) 8.5 5.56 (17:10) 3.33 (17:10) 0 0 0 0 0
27-11-2020 10.4 (14:00) 6.1 (00:00) 8.2 9.17 (13:50) 4.17 (04:50) 1 0 1 0 0
26-11-2020 10.3 (12:50) 5.6 (00:00) 8 11.67 (14:00) 5 (17:20) 0.4 0 0 0.4 0
25-11-2020 8.7 (15:20) -1.2 (-00:0) 3.7 6.67 (23:40) 3.89 (23:50) 0 0 0 0 0
24-11-2020 13.7 (14:50) -1.6 (-00:0) 6 5.83 (14:00) 3.33 (14:10) 0 0 0 0 0
23-11-2020 17.3 (15:40) -1.1 (-00:0) 8.1 2.5 (13:50) 1.67 (17:30) 0 0 0 0 0
22-11-2020 17.7 (15:20) -3.1 (-00:0) 7.3 4.72 (16:20) 2.78 (16:20) 0 0 0 0 0
21-11-2020 17.2 (14:10) 0.4 (00:00) 8.8 6.39 (01:10) 3.06 (14:20) 0 0 0 0 0
20-11-2020 12.8 (15:10) 2.4 (00:00) 7.6 12.5 (08:50) 7.22 (10:40) 0 0 0 0 0
19-11-2020 16.5 (13:20) 4.3 (00:00) 10.4 9.17 (13:30) 4.72 (19:30) 0 0 0 0 0
18-11-2020 21.1 (16:10) 1.2 (00:00) 11.2 6.67 (14:50) 3.89 (14:40) 0 0 0 0 0
17-11-2020 19.8 (15:30) 1.8 (00:00) 10.8 5.28 (16:40) 2.78 (16:50) 0 0 0 0 0
16-11-2020 16.1 (14:20) 5.4 (00:00) 10.8 7.22 (02:00) 4.17 (01:50) 3 3 0 0 0
15-11-2020 15.5 (13:00) 7.8 (00:00) 11.7 11.94 (20:40) 6.39 (20:40) 0.2 0 0 0 0.2
14-11-2020 12 (16:10) 1.5 (00:00) 6.8 4.72 (16:20) 3.06 (16:20) 0 0 0 0 0
13-11-2020 15.9 (16:20) 4.7 (00:00) 10.3 5.28 (14:40) 2.78 (15:30) 0 0 0 0 0
12-11-2020 16 (14:20) 3.4 (00:00) 9.7 4.17 (00:10) 2.22 (01:10) 0 0 0 0 0
11-11-2020 16 (14:40) 0.3 (00:00) 8.2 6.67 (14:20) 3.89 (14:20) 0 0 0 0 0
10-11-2020 16.1 (15:10) 1.6 (00:00) 8.9 4.44 (14:20) 2.5 (14:20) 0 0 0 0 0
09-11-2020 15.4 (14:40) 4 (00:00) 9.7 7.5 (14:50) 5 (14:50) 0.2 0 0.2 0 0
08-11-2020 13.6 (15:20) 4.7 (00:00) 9.2 6.94 (12:30) 3.89 (15:00) 0 0 0 0 0
07-11-2020 12.2 (13:40) 8.4 (00:00) 10.3 11.39 (03:30) 5.28 (03:20) 24.2 16.8 4.6 2.8 0
06-11-2020 14.1 (14:00) 8.8 (00:00) 11.5 12.5 (12:30) 5.28 (15:10) 0.2 0 0 0.2 0
05-11-2020 13.1 (13:10) 4.9 (00:00) 9 11.94 (11:10) 5.56 (10:10) 2.8 0 0 0 2.8
04-11-2020 10.1 (13:50) 3.5 (00:00) 6.8 8.61 (06:30) 4.72 (03:50) 0.4 0 0 0 0.4
03-11-2020 10.5 (01:40) 5 (00:00) 7.8 11.39 (15:30) 6.11 (18:40) 4 0 4 0 0
02-11-2020 18.3 (11:50) 9.9 (00:00) 14.1 8.33 (11:40) 5 (11:40) 0 0 0 0 0

Gráficas

Temp. máximas Temp. mínimas Temp. medias Precipitaciones Rachas de viento máximas Velocidades máximas media en intervalos de 10 minutos

Datos horarios

Fecha y hora oficial Temperatura (ºC) Velocidad del viento (km/h) Dirección del viento Racha (km/h) Dirección de racha Precipitación (mm) Presión (hPa) Tendencia (hPa) Humedad (%)
2020-12-01 23:00:00 6 0 Calma 12 Nordeste 0 894.9 -- 67
2020-12-01 22:00:00 6.4 3 Norte 10 Norte 0 895.2 -- 62
2020-12-01 21:00:00 7 8 Norte 19 Nordeste 0 895.8 -- 55
2020-12-01 20:00:00 7.4 8 Norte 26 Noroeste 0 895.9 -- 51
2020-12-01 19:00:00 7.6 10 Norte 26 Norte 0 896.5 -- 52
2020-12-01 18:00:00 7.9 6 Norte 22 Norte 0 896.5 -- 56
2020-12-01 17:00:00 8.3 12 Norte 27 Nordeste 0 896.6 -- 57
2020-12-01 16:00:00 8.5 4 Noroeste 15 Norte 0 897 -- 67
2020-12-01 15:00:00 8.6 9 Norte 29 Nordeste 0 897.7 -- 62
2020-12-01 14:00:00 9.8 17 Norte 31 Norte 0 898.1 -- 49
2020-12-01 13:00:00 11 9 Norte 30 Nordeste 0 898.7 -- 45
2020-12-01 12:00:00 11.4 9 Norte 29 Nordeste 0 899.5 -- 39
2020-12-01 11:00:00 10.9 9 Norte 22 Norte 0 899.5 -- 40
2020-12-01 10:00:00 8.2 5 Norte 23 Norte 0 899.7 -- 44
2020-12-01 09:00:00 5.3 11 Norte 23 Nordeste 0 899.6 -- 51
2020-12-01 08:00:00 1 4 Norte 18 Oeste 0 899.4 -- 64
2020-12-01 07:00:00 0.5 4 Noroeste 11 Norte 0 899.4 -- 70
2020-12-01 06:00:00 -0.5 4 Noroeste 9 Noroeste 0 899.4 -- 88
2020-12-01 05:00:00 -0.4 4 Norte 9 Noroeste 0 899.4 -- 91
2020-12-01 04:00:00 0.8 4 Norte 10 Noroeste 0 899.7 -- 93
2020-12-01 03:00:00 0.8 3 Norte 9 Norte 0 900.2 -- 94
2020-12-01 02:00:00 0.8 2 Este 5 Norte 0 900.5 -- 94
2020-12-01 01:00:00 1.8 2 Este 10 Noroeste 0 900.8 -- 93
2020-12-01 00:00:00 2.2 0 Calma 5 Norte 0 900.5 -- 93
2020-11-30 23:00:00 3.1 3 Oeste 6 Sudeste 0 900.3 -- 93
2020-11-30 22:00:00 3.9 3 Noroeste 5 Noroeste 0 900.4 -- 90
2020-11-30 21:00:00 4.9 3 Nordeste 10 Nordeste 0 900.4 -- 88
2020-11-30 20:00:00 6.2 3 Norte 8 Nordeste 0 900.1 -- 84
2020-11-30 19:00:00 7.7 0 Calma 4 Oeste 0 899.9 -- 78
2020-11-30 18:00:00 9.6 0 Calma 5 Sudoeste 0 899.6 -- 71
2020-11-30 17:00:00 11.2 3 Sur 10 Sudoeste 0 899.4 -- 66
2020-11-30 16:00:00 11.6 6 Sur 10 Sudoeste 0 899.1 -- 64
2020-11-30 15:00:00 13.2 5 Sudeste 8 Sudeste 0 899 -- 55
2020-11-30 14:00:00 12.5 4 Sudeste 10 Nordeste 0 899.2 -- 58
2020-11-30 13:00:00 10.7 5 Nordeste 8 Este 0 899.3 -- 66
2020-11-30 12:00:00 8.6 2 Sur 8 Norte 0 899.8 -- 78
2020-11-30 11:00:00 4.2 2 Norte 6 Noroeste 0 900 -- 93
2020-11-30 10:00:00 1 2 Este 5 Nordeste 0 899.6 -- 97
2020-11-30 09:00:00 -0.2 3 Noroeste 4 Oeste 0 899.1 -- 100
2020-11-30 08:00:00 -1.7 3 Sudeste 4 Sudeste 0 898.7 -- 95
2020-11-30 07:00:00 -0.1 3 Norte 9 Norte 0 898.4 -- 95
2020-11-30 06:00:00 0.3 2 Noroeste 5 Norte 0 897.8 -- 97
2020-11-30 05:00:00 0.3 3 Nordeste 5 Nordeste 0 897.7 -- 98
2020-11-30 04:00:00 0.3 0 Calma 4 Nordeste 0 897.6 -- 97
2020-11-30 03:00:00 0.7 0 Calma 4 Norte 0 897.4 -- 97
2020-11-30 02:00:00 1 0 Calma 3 Norte 0 897.1 -- 97
2020-11-30 01:00:00 1.1 2 Este 3 Sudeste 0 897.1 -- 96
2020-11-30 00:00:00 1.6 0 Calma 4 Nordeste 0 897 -- 95
2020-11-29 23:00:00 2.3 3 Este 5 Este 0 896.8 -- 93
2020-11-29 22:00:00 3.2 0 Calma 7 Este 0 896.4 -- 91
2020-11-29 21:00:00 4.2 2 Sudeste 4 Noroeste 0 895.9 -- 89
2020-11-29 20:00:00 5.4 0 Calma 5 Norte 0 895.5 -- 86
2020-11-29 19:00:00 6.8 0 Calma 5 Sudoeste 0 895 -- 81
2020-11-29 18:00:00 8.5 3 Norte 5 Sudeste 0 894.4 -- 74
2020-11-29 17:00:00 9.8 6 Nordeste 10 Nordeste 0 893.9 -- 70
2020-11-29 16:00:00 10.4 0 Calma 10 Sudeste 0 893.6 -- 67
2020-11-29 15:00:00 10.8 3 Sudoeste 9 Sudeste 0 893.4 -- 66
2020-11-29 14:00:00 9.7 7 Sudeste 15 Sudeste 0 893.6 -- 71
2020-11-29 13:00:00 9.9 5 Este 12 Este 0 893.8 -- 75
2020-11-29 12:00:00 7.3 2 Sudoeste 9 Sudoeste 0 894 -- 84
2020-11-29 11:00:00 6.4 3 Sudoeste 8 Sur 0 893.8 -- 88
2020-11-29 10:00:00 5.6 3 Sur 4 Sudeste 0 893.2 -- 95
2020-11-29 09:00:00 4.5 0 Calma 9 Este 0 892.4 -- 97
2020-11-29 08:00:00 5.2 3 Noroeste 6 Oeste 0 891.7 -- 97
2020-11-29 07:00:00 5.1 0 Calma 4 Este 0 891.1 -- 96
2020-11-29 06:00:00 5.2 2 Este 4 Sudoeste 0 890.5 -- 97
2020-11-29 05:00:00 4.8 0 Calma 8 Sudoeste 0 890.4 -- 98
2020-11-29 04:00:00 4 0 Calma 4 Este 0 890.3 -- 99
2020-11-29 03:00:00 3.6 3 Nordeste 5 Nordeste 0 889.7 -- 96
2020-11-29 02:00:00 4.1 2 Sudeste 9 Nordeste 0 889.4 -- 95
2020-11-29 01:00:00 5.3 3 Norte 5 Norte 0 889.3 -- 91
2020-11-29 00:00:00 6.5 2 Sudeste 9 Sur 0 889 -- 92
2020-11-28 23:00:00 6.7 7 Sur 15 Sur 0 888.6 -- 91
2020-11-28 22:00:00 7 8 Sudeste 16 Sudeste 0 888.3 -- 88
2020-11-28 21:00:00 7.4 2 Sur 10 Este 0 887.7 -- 89
2020-11-28 20:00:00 7.6 3 Sudeste 7 Sudeste 0 887 -- 88
2020-11-28 19:00:00 7.8 3 Sudeste 12 Sur 0 886.6 -- 85
2020-11-28 18:00:00 8.2 6 Sur 20 Sudeste 0 885.9 -- 83
2020-11-28 17:00:00 8.9 9 Sur 15 Sur 0 885.3 -- 76
2020-11-28 16:00:00 9.6 10 Sur 19 Sur 0 884.7 -- 73
2020-11-28 15:00:00 10.7 10 Sur 18 Sudeste 0 884.4 -- 67
2020-11-28 14:00:00 9.9 7 Sudeste 11 Sudeste 0 884.2 -- 74
2020-11-28 13:00:00 8.6 5 Este 10 Este 0 884.4 -- 80
2020-11-28 12:00:00 8 0 Calma 4 Norte 0 884.5 -- 82
2020-11-28 11:00:00 7.5 0 Calma 5 Oeste 0 885 -- 88
2020-11-28 10:00:00 6.3 2 Este 7 Nordeste 0 885 -- 93
2020-11-28 09:00:00 5.9 0 Calma 8 Nordeste 0 884.8 -- 93
2020-11-28 08:00:00 6 3 Nordeste 8 Norte 0 884.2 -- 95
2020-11-28 07:00:00 6.1 3 Nordeste 12 Nordeste 0 883.8 -- 94
2020-11-28 06:00:00 6.3 5 Nordeste 10 Nordeste 0 884 -- 93
2020-11-28 05:00:00 6.3 4 Nordeste 8 Este 0 884.1 -- 92
2020-11-28 04:00:00 6.4 5 Nordeste 9 Nordeste 0 884.4 -- 89
2020-11-28 03:00:00 6.6 4 Este 14 Este 0 885 -- 93
2020-11-28 02:00:00 6.5 4 Este 13 Nordeste 0 885.1 -- 95
2020-11-28 01:00:00 6.3 7 Nordeste 13 Nordeste 0 885.3 -- 95
2020-11-28 00:00:00 6.1 6 Nordeste 19 Este 0 885.8 -- 93
2020-11-27 23:00:00 6.7 10 Este 22 Este 0 886.4 -- 91
2020-11-27 22:00:00 6.7 11 Este 17 Este 0 886.6 -- 93
2020-11-27 21:00:00 6.8 5 Nordeste 11 Nordeste 0 887 -- 94
2020-11-27 20:00:00 7.1 5 Este 12 Este 0 887.3 -- 91
2020-11-27 19:00:00 7.5 6 Nordeste 14 Nordeste 0 887.2 -- 91
2020-11-27 18:00:00 8.2 7 Nordeste 17 Este 0 887.3 -- 90
2020-11-27 17:00:00 9.1 10 Este 26 Este 0 887.4 -- 86
2020-11-27 16:00:00 9.4 10 Este 31 Sudeste 0 887.3 -- 84
2020-11-27 15:00:00 10.2 13 Este 27 Sudeste 0 887.6 -- 77
2020-11-27 14:00:00 10.2 12 Sudeste 33 Sudeste 0 888.4 -- 77
2020-11-27 13:00:00 10.1 13 Este 26 Este 0 889 -- 84
2020-11-27 12:00:00 8.7 13 Este 21 Este 0 889.8 -- 90
2020-11-27 11:00:00 7.2 9 Nordeste 14 Nordeste 0 890.3 -- 91
2020-11-27 10:00:00 7 6 Este 26 Sudeste 1 890.3 -- 91
2020-11-27 09:00:00 7.6 12 Este 27 Este 0 890.5 -- 82
2020-11-27 08:00:00 7.3 9 Este 21 Este 0 890.1 -- 90
2020-11-27 07:00:00 7.8 11 Este 27 Este 0 889.9 -- 88
2020-11-27 06:00:00 8 14 Este 24 Sudeste 0 890 -- 93
2020-11-27 05:00:00 7.9 14 Este 25 Este 0 890.3 -- 93
2020-11-27 04:00:00 8 13 Este 32 Este 0 890.6 -- 92
2020-11-27 03:00:00 8.2 12 Sudeste 29 Sudeste 0 891.1 -- 91
2020-11-27 02:00:00 8 9 Este 25 Sur 0 890.7 -- 92
2020-11-27 01:00:00 8.2 12 Sudeste 28 Sudeste 0 891.5 -- 93
2020-11-27 00:00:00 8 14 Sudeste 31 Sudeste 0 891.5 -- 94
2020-11-26 23:00:00 7.9 12 Sudeste 30 Este 0 891.1 -- 96
2020-11-26 22:00:00 7.2 12 Este 29 Este 0 891.1 -- 94
2020-11-26 21:00:00 7.4 15 Este 28 Sudeste 0 891.2 -- 94
2020-11-26 20:00:00 7.7 14 Este 30 Este 0 891.3 -- 93
2020-11-26 19:00:00 7.8 13 Este 27 Sudeste 0 891 -- 94
2020-11-26 18:00:00 7.8 15 Este 32 Este 0 890.8 -- 94
2020-11-26 17:00:00 8.3 15 Este 30 Este 0 890.7 -- 90
2020-11-26 16:00:00 8.4 12 Este 23 Este 0.4 890.7 -- 89
2020-11-26 15:00:00 8.6 15 Sudeste 35 Sudeste 0 890.7 -- 86
2020-11-26 14:00:00 10.1 18 Sudeste 42 Sudeste 0 890.7 -- 74
2020-11-26 13:00:00 9.7 14 Sudeste 33 Sudeste 0 891 -- 78
2020-11-26 12:00:00 9.7 11 Sudeste 23 Sudeste 0 891.5 -- 80
2020-11-26 11:00:00 7.2 9 Este 19 Este 0 891.8 -- 91
2020-11-26 10:00:00 6.1 9 Este 22 Este 0 891.6 -- 90
2020-11-26 09:00:00 5.9 10 Este 18 Sudeste 0 891.1 -- 86
2020-11-26 08:00:00 5.8 9 Este 18 Este 0 890.6 -- 87
2020-11-26 07:00:00 5.7 7 Nordeste 18 Este 0 890.5 -- 88
2020-11-26 06:00:00 5.6 8 Este 18 Este 0 890.2 -- 87
2020-11-26 05:00:00 5.9 5 Este 17 Este 0 890.4 -- 84
2020-11-26 04:00:00 5.9 9 Sudeste 27 Sudeste 0 890.6 -- 84
2020-11-26 03:00:00 6.1 9 Sudeste 23 Sur 0 890.5 -- 85
2020-11-26 02:00:00 5.9 9 Sudeste 20 Sudeste 0 890.8 -- 86
2020-11-26 01:00:00 5.9 9 Sudeste 24 Sudeste 0 890.8 -- 84
2020-11-26 00:00:00 6.4 12 Sudeste 24 Sudeste 0 890.8 -- 81
2020-11-25 23:00:00 5.8 6 Sudeste 19 Sudeste 0 890.9 -- 80
2020-11-25 22:00:00 5.8 6 Este 17 Sudeste 0 890.7 -- 77
2020-11-25 21:00:00 6 6 Sudeste 19 Sudeste 0 890.8 -- 77
2020-11-25 20:00:00 6.4 8 Sudeste 19 Este 0 890.7 -- 78
2020-11-25 19:00:00 7 6 Sudeste 16 Sudeste 0 890.6 -- 75
2020-11-25 18:00:00 7.9 8 Sudeste 15 Sur 0 890.4 -- 74
2020-11-25 17:00:00 8.4 10 Sudeste 19 Sudeste 0 890.3 -- 76
2020-11-25 16:00:00 8.5 10 Sur 20 Sudeste 0 890.4 -- 75
2020-11-25 15:00:00 8.3 9 Sur 18 Sudeste 0 890.5 -- 74
2020-11-25 14:00:00 7 3 Este 8 Nordeste 0 891.3 -- 80
2020-11-25 13:00:00 5.6 5 Nordeste 10 Este 0 891.9 -- 85
2020-11-25 12:00:00 4.3 4 Nordeste 9 Este 0 892.6 -- 90
2020-11-25 11:00:00 3.4 3 Este 10 Nordeste 0 892.9 -- 90
2020-11-25 10:00:00 2.6 4 Norte 9 Este 0 892.9 -- 91
2020-11-25 09:00:00 0.1 3 Sudeste 8 Norte 0 892.9 -- 94
2020-11-25 08:00:00 -0.2 2 Noroeste 4 Norte 0 892.7 -- 97
2020-11-25 07:00:00 -1.1 0 Calma 3 Nordeste 0 892.7 -- 94
2020-11-25 06:00:00 -1.1 0 Calma 3 Noroeste 0 892.9 -- 92
2020-11-25 05:00:00 -1.1 0 Calma 3 Sudeste 0 893.1 -- 92
2020-11-25 04:00:00 -0.3 0 Calma 3 Noroeste 0 893.3 -- 91
2020-11-25 03:00:00 0.3 0 Calma 5 Noroeste 0 893.5 -- 89
2020-11-25 02:00:00 0.9 3 Noroeste 4 Noroeste 0 893.8 -- 88
2020-11-25 01:00:00 2 2 Norte 4 Norte 0 894.3 -- 84
2020-11-25 00:00:00 2.5 0 Calma 4 Este 0 894.6 -- 84
2020-11-24 23:00:00 3.8 0 Calma 4 Sur 0 895 -- 78
2020-11-24 22:00:00 4.6 3 Sur 8 Oeste 0 895.3 -- 76
2020-11-24 21:00:00 5.8 5 Sudoeste 13 Sudoeste 0 895.4 -- 73
2020-11-24 20:00:00 6.8 6 Sudoeste 17 Sur 0 895.6 -- 69
2020-11-24 19:00:00 8.1 5 Oeste 9 Oeste 0 895.6 -- 65
2020-11-24 18:00:00 9.7 4 Sudoeste 12 Sudoeste 0 895.6 -- 57
2020-11-24 17:00:00 12.2 8 Oeste 18 Oeste 0 895.5 -- 47
2020-11-24 16:00:00 12.7 8 Sudoeste 19 Sudoeste 0 895.7 -- 45
2020-11-24 15:00:00 13.7 10 Oeste 21 Sudoeste 0 896 -- 45
2020-11-24 14:00:00 12.4 11 Sudoeste 21 Oeste 0 897 -- 47
2020-11-24 13:00:00 12.4 8 Sudoeste 13 Sudoeste 0 897.7 -- 50
2020-11-24 12:00:00 9 5 Sur 8 Sudoeste 0 898.8 -- 64
2020-11-24 11:00:00 5.6 2 Sudeste 5 Este 0 899.3 -- 72
2020-11-24 10:00:00 3.4 2 Sudeste 4 Sudeste 0 899.3 -- 83
2020-11-24 09:00:00 -0.1 0 Calma 3 Norte 0 899.1 -- 97
2020-11-24 08:00:00 -1.5 2 Norte 5 Noroeste 0 899 -- 92
2020-11-24 07:00:00 -1 2 Noroeste 4 Noroeste 0 899.1 -- 88
2020-11-24 06:00:00 -0.9 0 Calma 3 Norte 0 899.2 -- 86
2020-11-24 05:00:00 -0.4 0 Calma 6 Noroeste 0 899.3 -- 84
2020-11-24 04:00:00 0 2 Norte 5 Noroeste 0 899.8 -- 84
2020-11-24 03:00:00 0 3 Este 4 Este 0 900.2 -- 82
2020-11-24 02:00:00 0.7 0 Calma 4 Este 0 900.6 -- 79
2020-11-24 01:00:00 1.3 0 Calma 3 Sudeste 0 901.3 -- 79
2020-11-24 00:00:00 2.3 0 Calma 3 Noroeste 0 901.5 -- 72
2020-11-23 23:00:00 3.4 0 Calma 5 Norte 0 902 -- 67
2020-11-23 22:00:00 4.2 0 Calma 3 Noroeste 0 902.1 -- 67
2020-11-23 21:00:00 5.4 3 Este 5 Este 0 902.2 -- 65
2020-11-23 20:00:00 7.6 0 Calma 7 Norte 0 902 -- 54
2020-11-23 19:00:00 9.8 3 Sudoeste 6 Sudoeste 0 901.9 -- 45
2020-11-23 18:00:00 11.7 3 Sudoeste 9 Sur 0 901.7 -- 41
2020-11-23 17:00:00 15.4 2 Sur 6 Sudeste 0 901.5 -- 34
2020-11-23 16:00:00 17.3 2 Sur 6 Sudeste 0 901.6 -- 28
2020-11-23 15:00:00 17.1 2 Sudeste 7 Sudoeste 0 901.8 -- 30
2020-11-23 14:00:00 16.1 4 Sudoeste 9 Sur 0 902.3 -- 37
2020-11-23 13:00:00 14.4 3 Sudoeste 7 Sudoeste 0 902.9 -- 43
2020-11-23 12:00:00 11.8 3 Sur 5 Este 0 903.7 -- 46
2020-11-23 11:00:00 8.2 2 Noroeste 5 Norte 0 903.8 -- 54
2020-11-23 10:00:00 4.2 2 Sudeste 5 Norte 0 903.7 -- 79
2020-11-23 09:00:00 -0.1 0 Calma 5 Noroeste 0 903.5 -- 94
2020-11-23 08:00:00 -1.1 0 Calma 6 Noroeste 0 903 -- 92
2020-11-23 07:00:00 -0.9 3 Noroeste 6 Nordeste 0 902.9 -- 90
2020-11-23 06:00:00 -0.2 0 Calma 4 Norte 0 902.9 -- 92
2020-11-23 05:00:00 0.1 0 Calma 3 Norte 0 903 -- 91
2020-11-23 04:00:00 0.3 0 Calma 5 Norte 0 903.3 -- 91
2020-11-23 03:00:00 0.6 0 Calma 5 Norte 0 903.2 -- 88
2020-11-23 02:00:00 1.7 2 Norte 4 Norte 0 903.5 -- 88
2020-11-23 01:00:00 2.2 0 Calma 3 Noroeste 0 903.5 -- 85
2020-11-23 00:00:00 2.9 2 Nordeste 4 Norte 0 903.5 -- 80
2020-11-22 23:00:00 3.5 3 Norte 6 Oeste 0 903.6 -- 78
2020-11-22 22:00:00 4 2 Este 4 Nordeste 0 903.5 -- 74
2020-11-22 21:00:00 5.8 2 Norte 5 Norte 0 903.3 -- 67
2020-11-22 20:00:00 7.5 3 Norte 5 Oeste 0 902.8 -- 58
2020-11-22 19:00:00 9.4 0 Calma 14 Oeste 0 902.5 -- 52
2020-11-22 18:00:00 11.2 7 Sudoeste 15 Oeste 0 902.1 -- 46
2020-11-22 17:00:00 14.7 8 Oeste 17 Oeste 0 902 -- 39
2020-11-22 16:00:00 16.5 8 Sudoeste 16 Oeste 0 901.8 -- 35
2020-11-22 15:00:00 17.6 4 Sudoeste 12 Oeste 0 901.9 -- 37
2020-11-22 14:00:00 16.8 4 Sur 7 Oeste 0 902.3 -- 38
2020-11-22 13:00:00 14 3 Este 5 Nordeste 0 902.8 -- 41
2020-11-22 12:00:00 11.2 2 Sudoeste 5 Noroeste 0 903.6 -- 45
2020-11-22 11:00:00 6.9 2 Norte 6 Nordeste 0 903.9 -- 57
2020-11-22 10:00:00 3.4 2 Noroeste 5 Norte 0 903.7 -- 69
2020-11-22 09:00:00 -0.6 3 Norte 5 Norte 0 903.5 -- 85
2020-11-22 08:00:00 -2.7 2 Noroeste 7 Nordeste 0 903.3 -- 89
2020-11-22 07:00:00 -2.5 0 Calma 4 Norte 0 903.1 -- 80
2020-11-22 06:00:00 -1.5 2 Norte 4 Noroeste 0 903.2 -- 75
2020-11-22 05:00:00 -1.3 2 Noroeste 3 Norte 0 903.2 -- 75
2020-11-22 04:00:00 -1 0 Calma 6 Norte 0 903.5 -- 73
2020-11-22 03:00:00 -0.9 4 Norte 7 Noroeste 0 903.4 -- 73
2020-11-22 02:00:00 -0.3 4 Este 7 Este 0 903.5 -- 70
2020-11-22 01:00:00 0.4 0 Calma 4 Noroeste 0 903.8 -- 67
2020-11-22 00:00:00 0.5 2 Norte 6 Este 0 903.9 -- 68
2020-11-21 23:00:00 1 0 Calma 4 Sudeste 0 904 -- 69
2020-11-21 22:00:00 2.4 2 Este 5 Nordeste 0 904.1 -- 61
2020-11-21 21:00:00 4.2 0 Calma 6 Norte 0 904.1 -- 51
2020-11-21 20:00:00 6.2 3 Norte 9 Sur 0 904 -- 43
2020-11-21 19:00:00 8 7 Sur 12 Sur 0 903.6 -- 37
2020-11-21 18:00:00 10.1 6 Sur 14 Sur 0 902.9 -- 33
2020-11-21 17:00:00 13.6 9 Sur 15 Sur 0 902.8 -- 27
2020-11-21 16:00:00 15.7 9 Sur 15 Sur 0 902.8 -- 23
2020-11-21 15:00:00 16.6 8 Sur 16 Sur 0 902.7 -- 22
2020-11-21 14:00:00 17.1 5 Sudeste 11 Sudeste 0 902.8 -- 19
2020-11-21 13:00:00 15 3 Nordeste 10 Nordeste 0 903.2 -- 17
2020-11-21 12:00:00 13.2 5 Este 9 Este 0 903.9 -- 20
2020-11-21 11:00:00 10.2 4 Este 9 Nordeste 0 904.1 -- 28
2020-11-21 10:00:00 8.1 3 Norte 6 Norte 0 903.7 -- 31
2020-11-21 09:00:00 4.1 2 Noroeste 8 Oeste 0 903.4 -- 44
2020-11-21 08:00:00 2.5 4 Oeste 8 Sudoeste 0 903.1 -- 47
2020-11-21 07:00:00 3.1 3 Sudoeste 9 Sudoeste 0 902.8 -- 40
2020-11-21 06:00:00 3.9 3 Sur 13 Nordeste 0 902.5 -- 35
2020-11-21 05:00:00 4.6 5 Norte 9 Norte 0 902.6 -- 34
2020-11-21 04:00:00 6 3 Noroeste 14 Norte 0 903 -- 32
2020-11-21 03:00:00 6.1 5 Norte 16 Nordeste 0 903.4 -- 29
2020-11-21 02:00:00 7.2 6 Norte 23 Nordeste 0 904.1 -- 23
2020-11-21 01:00:00 7.3 7 Norte 18 Nordeste 0 904.6 -- 26
2020-11-21 00:00:00 6.1 6 Sudoeste 14 Norte 0 905 -- 34
2020-11-20 23:00:00 6.7 5 Norte 30 Norte 0 905.3 -- 37
2020-11-20 22:00:00 6.3 11 Nordeste 33 Norte 0 905 -- 38
2020-11-20 21:00:00 6.6 14 Norte 34 Nordeste 0 905 -- 43
2020-11-20 20:00:00 6.7 16 Norte 33 Norte 0 905.1 -- 51
2020-11-20 19:00:00 6.6 5 Sudeste 27 Nordeste 0 905.5 -- 58
2020-11-20 18:00:00 8.2 16 Norte 35 Norte 0 905.2 -- 49
2020-11-20 17:00:00 10.2 13 Nordeste 28 Nordeste 0 905.3 -- 37
2020-11-20 16:00:00 11.7 14 Nordeste 27 Nordeste 0 905.4 -- 33
2020-11-20 15:00:00 12.6 13 Nordeste 28 Nordeste 0 905.6 -- 32
2020-11-20 14:00:00 12.2 13 Nordeste 35 Nordeste 0 906.2 -- 31
2020-11-20 13:00:00 11.3 19 Nordeste 32 Norte 0 906.6 -- 32
2020-11-20 12:00:00 9.3 18 Nordeste 38 Nordeste 0 907.7 -- 44
2020-11-20 11:00:00 7.4 23 Nordeste 39 Norte 0 907.9 -- 57
2020-11-20 10:00:00 7.2 23 Norte 42 Nordeste 0 907.6 -- 55
2020-11-20 09:00:00 5.8 22 Nordeste 45 Nordeste 0 907.1 -- 55
2020-11-20 08:00:00 4.3 19 Norte 40 Norte 0 906.9 -- 63
2020-11-20 07:00:00 3 4 Noroeste 19 Nordeste 0 906.8 -- 71
2020-11-20 06:00:00 2.7 5 Norte 10 Noroeste 0 907.3 -- 78
2020-11-20 05:00:00 3.5 4 Norte 14 Nordeste 0 907.5 -- 79
2020-11-20 04:00:00 4.2 10 Nordeste 18 Nordeste 0 908.2 -- 74
2020-11-20 03:00:00 4.4 9 Este 17 Norte 0 908.3 -- 78
2020-11-20 02:00:00 4.8 6 Norte 26 Nordeste 0 908.7 -- 78
2020-11-20 01:00:00 5.2 15 Norte 28 Nordeste 0 908.8 -- 79
2020-11-20 00:00:00 5.8 9 Nordeste 21 Nordeste 0 909 -- 74
2020-11-19 23:00:00 6 6 Nordeste 15 Norte 0 909.2 -- 76
2020-11-19 22:00:00 6.7 3 Norte 31 Nordeste 0 909.1 -- 79
2020-11-19 21:00:00 7.8 14 Nordeste 26 Nordeste 0 909.4 -- 78
2020-11-19 20:00:00 8.5 11 Nordeste 31 Norte 0 909.3 -- 80
2020-11-19 19:00:00 9.6 9 Nordeste 24 Nordeste 0 909.1 -- 79
2020-11-19 18:00:00 10.9 8 Nordeste 28 Nordeste 0 909.1 -- 74
2020-11-19 17:00:00 12.6 13 Norte 33 Norte 0 908.6 -- 67
2020-11-19 16:00:00 14.9 13 Norte 27 Norte 0 908 -- 59
2020-11-19 15:00:00 16.5 7 Norte 28 Nordeste 0 908 -- 55
2020-11-19 14:00:00 15.6 14 Norte 33 Nordeste 0 908.7 -- 59
2020-11-19 13:00:00 16.1 15 Norte 30 Norte 0 908.6 -- 60
2020-11-19 12:00:00 15.7 9 Norte 23 Nordeste 0 909.3 -- 63
2020-11-19 11:00:00 14.5 12 Norte 24 Norte 0 909.8 -- 70
2020-11-19 10:00:00 13.4 10 Norte 19 Nordeste 0 909.4 -- 72
2020-11-19 09:00:00 10.7 9 Norte 22 Norte 0 908.5 -- 85
2020-11-19 08:00:00 7.9 7 Nordeste 16 Nordeste 0 907.9 -- 93
2020-11-19 07:00:00 4.6 4 Norte 9 Nordeste 0 907.3 -- 90
2020-11-19 06:00:00 4.5 2 Nordeste 8 Nordeste 0 906.7 -- 90
2020-11-19 05:00:00 4.8 2 Sudeste 5 Norte 0 906.1 -- 89
2020-11-19 04:00:00 5.5 2 Norte 5 Nordeste 0 906.2 -- 86
2020-11-19 03:00:00 5.9 0 Calma 4 Nordeste 0 905.9 -- 89
2020-11-19 02:00:00 6.1 2 Sudeste 4 Sudeste 0 905.8 -- 88
2020-11-19 01:00:00 7.2 3 Norte 6 Nordeste 0 905.9 -- 86
2020-11-19 00:00:00 7.6 3 Norte 8 Noroeste 0 905.8 -- 85
2020-11-18 23:00:00 8.7 3 Norte 5 Norte 0 905.7 -- 81
2020-11-18 22:00:00 9.8 2 Noroeste 7 Noroeste 0 905.3 -- 79
2020-11-18 21:00:00 10.4 2 Norte 5 Oeste 0 904.9 -- 74
2020-11-18 20:00:00 12.2 3 Nordeste 12 Sudoeste 0 904.6 -- 68
2020-11-18 19:00:00 13.7 9 Oeste 14 Oeste 0 904.2 -- 62
2020-11-18 18:00:00 15.9 0 Calma 15 Sudoeste 0 903.8 -- 53
2020-11-18 17:00:00 19.3 7 Oeste 16 Oeste 0 903.4 -- 43
2020-11-18 16:00:00 21 5 Norte 21 Oeste 0 903.2 -- 37
2020-11-18 15:00:00 20.2 11 Oeste 24 Oeste 0 903.2 -- 42
2020-11-18 14:00:00 19.5 11 Oeste 22 Oeste 0 903.6 -- 47
2020-11-18 13:00:00 18.6 13 Oeste 20 Sudoeste 0 904.1 -- 48
2020-11-18 12:00:00 16.1 9 Oeste 17 Oeste 0 904.6 -- 58
2020-11-18 11:00:00 11.5 0 Calma 6 Sudoeste 0 904.9 -- 70
2020-11-18 10:00:00 7.4 2 Nordeste 4 Este 0 904.7 -- 81
2020-11-18 09:00:00 2.1 0 Calma 3 Sudeste 0 904.3 -- 98
2020-11-18 08:00:00 1.6 0 Calma 4 Noroeste 0 903.8 -- 93
2020-11-18 07:00:00 2.3 2 Norte 5 Norte 0 903.5 -- 96
2020-11-18 06:00:00 1.8 0 Calma 3 Este 0 903.4 -- 96
2020-11-18 05:00:00 2.6 0 Calma 8 Noroeste 0 903.1 -- 91
2020-11-18 04:00:00 3.3 2 Noroeste 3 Oeste 0 903.3 -- 93
2020-11-18 03:00:00 3.4 0 Calma 4 Norte 0 903.4 -- 92
2020-11-18 02:00:00 4.1 0 Calma 3 Norte 0 903.5 -- 91
2020-11-18 01:00:00 4.4 2 Norte 4 Noroeste 0 903.8 -- 89
2020-11-18 00:00:00 5.3 0 Calma 4 Sudeste 0 904 -- 82
2020-11-17 23:00:00 6.8 0 Calma 5 Noroeste 0 904 -- 70
2020-11-17 22:00:00 8.1 0 Calma 4 Sur 0 903.7 -- 65
2020-11-17 21:00:00 9.3 3 Sudoeste 11 Sudoeste 0 903.4 -- 58
2020-11-17 20:00:00 10.8 8 Sudoeste 11 Sudoeste 0 903.2 -- 53
2020-11-17 19:00:00 12.1 6 Sudoeste 14 Oeste 0 902.7 -- 53
2020-11-17 18:00:00 14.3 9 Sudoeste 15 Sudoeste 0 902.3 -- 48
2020-11-17 17:00:00 18 8 Sudoeste 19 Oeste 0 902.4 -- 41
2020-11-17 16:00:00 19.4 9 Sudoeste 15 Sudoeste 0 902.2 -- 34
2020-11-17 15:00:00 19.3 8 Sudoeste 13 Sudoeste 0 902.3 -- 36
2020-11-17 14:00:00 18.5 5 Sudoeste 12 Sudoeste 0 902.6 -- 36
2020-11-17 13:00:00 16.9 4 Sur 8 Sur 0 903.1 -- 54
2020-11-17 12:00:00 14.2 2 Sudoeste 5 Sur 0 903.6 -- 56
2020-11-17 11:00:00 11.3 3 Sur 5 Sur 0 903.8 -- 69
2020-11-17 10:00:00 7.5 0 Calma 7 Norte 0 903.5 -- 84
2020-11-17 09:00:00 2.8 0 Calma 5 Oeste 0 903.3 -- 99
2020-11-17 08:00:00 1.9 3 Norte 5 Norte 0 902.9 -- 95
2020-11-17 07:00:00 2.4 3 Oeste 4 Oeste 0 902.7 -- 94
2020-11-17 06:00:00 2.7 2 Norte 9 Norte 0 902.5 -- 93
2020-11-17 05:00:00 3.4 5 Norte 8 Norte 0 902.4 -- 97
2020-11-17 04:00:00 3.5 4 Norte 11 Norte 0 902.4 -- 97
2020-11-17 03:00:00 3.3 2 Sudeste 6 Norte 0 902.5 -- 92
2020-11-17 02:00:00 4.3 2 Nordeste 8 Noroeste 0 902.6 -- 90
2020-11-17 01:00:00 5.2 4 Noroeste 9 Norte 0 903 -- 90
2020-11-17 00:00:00 5.6 4 Norte 8 Noroeste 0 903 -- 97
2020-11-16 23:00:00 5.9 2 Norte 4 Norte 0 903.3 -- 95
2020-11-16 22:00:00 6.7 3 Nordeste 6 Este 0 903.1 -- 96
2020-11-16 21:00:00 7.7 2 Norte 5 Norte 0 902.7 -- 92
2020-11-16 20:00:00 8.8 0 Calma 5 Norte 0 902.1 -- 88
2020-11-16 19:00:00 9.8 2 Norte 7 Oeste 0 901.7 -- 83
2020-11-16 18:00:00 12.4 2 Noroeste 12 Oeste 0 901.3 -- 71
2020-11-16 17:00:00 14.6 5 Noroeste 14 Oeste 0 901.1 -- 61
2020-11-16 16:00:00 15.8 9 Oeste 19 Oeste 0 900.9 -- 57
2020-11-16 15:00:00 15.8 9 Oeste 20 Oeste 0 900.5 -- 56
2020-11-16 14:00:00 15.9 6 Norte 15 Noroeste 0 900.5 -- 58
2020-11-16 13:00:00 13.2 4 Sudoeste 8 Sur 0 901.1 -- 71
2020-11-16 12:00:00 12.8 3 Este 12 Nordeste 0 901.3 -- 73
2020-11-16 11:00:00 12.7 5 Este 12 Este 0 901.1 -- 75
2020-11-16 10:00:00 10 5 Este 12 Este 0 900.7 -- 92
2020-11-16 09:00:00 9.5 3 Noroeste 8 Norte 0 900.3 -- 98
2020-11-16 08:00:00 9 0 Calma 8 Nordeste 0 899.3 -- 98
2020-11-16 07:00:00 9.6 4 Oeste 20 Nordeste 0 899 -- 95
2020-11-16 06:00:00 10.6 6 Noroeste 19 Oeste 0 898.4 -- 92
2020-11-16 05:00:00 11 8 Oeste 17 Oeste 0 898.2 -- 94
2020-11-16 04:00:00 11.3 7 Oeste 22 Oeste 0 898.2 -- 94
2020-11-16 03:00:00 11.9 9 Oeste 25 Oeste 0 897.9 -- 94
2020-11-16 02:00:00 11.9 14 Oeste 26 Oeste 0.2 897.9 -- 94
2020-11-16 01:00:00 12 8 Oeste 25 Oeste 2.8 897.8 -- 98
2020-11-16 00:00:00 12.2 15 Oeste 35 Oeste 0 898.2 -- 96
2020-11-15 23:00:00 12.2 17 Oeste 35 Oeste 0 897.6 -- 94
2020-11-15 22:00:00 12.4 16 Oeste 33 Oeste 0 897.5 -- 93
2020-11-15 21:00:00 12.9 18 Oeste 43 Oeste 0 897 -- 91
2020-11-15 20:00:00 13.7 19 Oeste 39 Oeste 0 896.6 -- 82
2020-11-15 19:00:00 14 16 Oeste 35 Oeste 0.2 896.5 -- 81
2020-11-15 18:00:00 14.4 14 Oeste 31 Sudoeste 0 896.3 -- 78
2020-11-15 17:00:00 14.6 13 Oeste 28 Oeste 0 896.3 -- 80
2020-11-15 16:00:00 14.8 16 Oeste 34 Sudoeste 0 896.1 -- 79
2020-11-15 15:00:00 14.7 18 Oeste 35 Oeste 0 896.1 -- 83
2020-11-15 14:00:00 15.1 14 Oeste 31 Oeste 0 896.3 -- 80
2020-11-15 13:00:00 15.3 20 Oeste 39 Oeste 0 896.4 -- 77
2020-11-15 12:00:00 14.8 17 Oeste 36 Oeste 0 896.7 -- 81
2020-11-15 11:00:00 12.3 12 Oeste 23 Sudoeste 0 896.8 -- 89
2020-11-15 10:00:00 9.8 9 Sudoeste 19 Sudoeste 0 896.9 -- 96
2020-11-15 09:00:00 8.7 8 Sudoeste 17 Sudoeste 0 896.7 -- 98
2020-11-15 08:00:00 8.1 5 Oeste 23 Oeste 0 896.4 -- 98
2020-11-15 07:00:00 7.9 7 Sudoeste 18 Sudoeste 0 896.2 -- 98
2020-11-15 06:00:00 8.5 10 Oeste 15 Oeste 0 896.6 -- 99
2020-11-15 05:00:00 8.8 6 Sudoeste 12 Oeste 0 896.4 -- 99
2020-11-15 04:00:00 9 6 Sudoeste 12 Sudoeste 0 896.4 -- 98
2020-11-15 03:00:00 9 4 Sudoeste 13 Sudoeste 0 896.8 -- 98
2020-11-15 02:00:00 8.6 4 Sudoeste 13 Sudoeste 0 897.1 -- 99
2020-11-15 01:00:00 8.2 6 Sudoeste 12 Sudoeste 0 897.4 -- 99
2020-11-15 00:00:00 8.1 4 Sudoeste 8 Sudoeste 0 897.4 -- 98
2020-11-14 23:00:00 8.4 4 Sudoeste 6 Oeste 0 897.7 -- 97
2020-11-14 22:00:00 8.6 4 Sudoeste 10 Sudoeste 0 897.6 -- 98
2020-11-14 21:00:00 8.5 4 Sudoeste 8 Sudoeste 0 897.4 -- 97
2020-11-14 20:00:00 9.2 4 Oeste 12 Sudoeste 0 897.4 -- 95
2020-11-14 19:00:00 9.8 8 Sudoeste 17 Sudoeste 0 896.8 -- 93
2020-11-14 18:00:00 10.7 10 Sur 15 Sur 0 896.5 -- 89
2020-11-14 17:00:00 11.2 7 Sudoeste 17 Sur 0 896.5 -- 86
2020-11-14 16:00:00 11.7 9 Sur 15 Sur 0 896.4 -- 83
2020-11-14 15:00:00 11.5 9 Sur 14 Sur 0 896.7 -- 79
2020-11-14 14:00:00 11.1 4 Sudoeste 11 Sudoeste 0 897 -- 76
2020-11-14 13:00:00 10.4 5 Sudoeste 8 Sur 0 897.5 -- 80
2020-11-14 12:00:00 7.8 3 Este 6 Este 0 898 -- 92
2020-11-14 11:00:00 6.1 3 Oeste 5 Oeste 0 898 -- 100
2020-11-14 10:00:00 4.4 0 Calma 6 Norte 0 897.9 -- 100
2020-11-14 09:00:00 2.3 2 Sur 5 Sur 0 897.7 -- 98
2020-11-14 08:00:00 1.7 0 Calma 3 Noroeste 0 897.2 -- 97
2020-11-14 07:00:00 1.9 0 Calma 4 Nordeste 0 896.9 -- 95
2020-11-14 06:00:00 2.3 0 Calma 2 Este 0 896.7 -- 94
2020-11-14 05:00:00 2.5 0 Calma 4 Norte 0 896.8 -- 94
2020-11-14 04:00:00 3 0 Calma 4 Este 0 897 -- 92
2020-11-14 03:00:00 3.9 0 Calma 4 Este 0 897.3 -- 91
2020-11-14 02:00:00 4.5 4 Este 6 Este 0 897.4 -- 90
2020-11-14 01:00:00 4.9 2 Noroeste 4 Noroeste 0 897.9 -- 89
2020-11-14 00:00:00 5.4 0 Calma 6 Nordeste 0 898.2 -- 89
2020-11-13 23:00:00 5.9 0 Calma 5 Este 0 898.2 -- 86
2020-11-13 22:00:00 7.1 0 Calma 3 Oeste 0 898 -- 81
2020-11-13 21:00:00 8.3 2 Noroeste 9 Oeste 0 898 -- 74
2020-11-13 20:00:00 9.4 4 Sudoeste 11 Sur 0 897.8 -- 73
2020-11-13 19:00:00 10.2 6 Sur 12 Sur 0 897.4 -- 70
2020-11-13 18:00:00 11.8 7 Sur 17 Sudoeste 0 897.1 -- 65
2020-11-13 17:00:00 14.7 10 Sur 16 Sur 0 896.9 -- 56
2020-11-13 16:00:00 15.6 6 Sudoeste 17 Sur 0 896.7 -- 55
2020-11-13 15:00:00 15.5 7 Sur 19 Sur 0 896.9 -- 57
2020-11-13 14:00:00 14.2 6 Sur 16 Sur 0 897.3 -- 63
2020-11-13 13:00:00 14.5 8 Sur 12 Sur 0 897.7 -- 62
2020-11-13 12:00:00 13 4 Sur 9 Sur 0 898.3 -- 67
2020-11-13 11:00:00 11.1 3 Sur 6 Sur 0 898.7 -- 73
2020-11-13 10:00:00 7.8 3 Nordeste 5 Este 0 898.5 -- 90
2020-11-13 09:00:00 5.3 0 Calma 6 Este 0 898.1 -- 98
2020-11-13 08:00:00 4.8 0 Calma 5 Norte 0 897.6 -- 95
2020-11-13 07:00:00 5.3 3 Nordeste 5 Sudeste 0 897.3 -- 94
2020-11-13 06:00:00 5.5 2 Nordeste 5 Este 0 897.3 -- 93
2020-11-13 05:00:00 5.5 3 Este 5 Este 0 897.2 -- 94
2020-11-13 04:00:00 5.9 0 Calma 3 Noroeste 0 897.4 -- 92
2020-11-13 03:00:00 5.8 0 Calma 4 Este 0 897.6 -- 91
2020-11-13 02:00:00 6.3 0 Calma 3 Nordeste 0 897.9 -- 89
2020-11-13 01:00:00 6.6 0 Calma 5 Sudeste 0 898.2 -- 89
2020-11-13 00:00:00 6.6 0 Calma 4 Nordeste 0 898.5 -- 88
2020-11-12 23:00:00 6.8 3 Este 5 Este 0 898.5 -- 89
2020-11-12 22:00:00 7.6 3 Noroeste 6 Nordeste 0 898.4 -- 87
2020-11-12 21:00:00 7.7 4 Este 7 Este 0 898.3 -- 88
2020-11-12 20:00:00 8.6 0 Calma 7 Nordeste 0 898.3 -- 81
2020-11-12 19:00:00 10.1 2 Este 7 Este 0 898.3 -- 74
2020-11-12 18:00:00 11.8 6 Este 9 Este 0 898 -- 71
2020-11-12 17:00:00 14.4 5 Sur 14 Sudeste 0 897.9 -- 61
2020-11-12 16:00:00 13.3 6 Sudeste 13 Sur 0 898 -- 69
2020-11-12 15:00:00 14.4 7 Sur 12 Sur 0 898.1 -- 65
2020-11-12 14:00:00 15.5 6 Sur 14 Sur 0 898.6 -- 62
2020-11-12 13:00:00 13.1 8 Sur 13 Sudoeste 0 899.2 -- 69
2020-11-12 12:00:00 11.1 5 Sudoeste 8 Sudoeste 0 900 -- 68
2020-11-12 11:00:00 9 4 Nordeste 8 Este 0 900.2 -- 67
2020-11-12 10:00:00 5.5 4 Norte 8 Norte 0 900.2 -- 83
2020-11-12 09:00:00 3.8 2 Nordeste 5 Norte 0 900.2 -- 89
2020-11-12 08:00:00 3.4 0 Calma 6 Nordeste 0 899.6 -- 89
2020-11-12 07:00:00 3.8 0 Calma 4 Nordeste 0 899.5 -- 89
2020-11-12 06:00:00 4.2 2 Sur 5 Nordeste 0 899.6 -- 91
2020-11-12 05:00:00 4.4 2 Este 4 Norte 0 899.6 -- 88
2020-11-12 04:00:00 4.8 3 Sudeste 13 Nordeste 0 899.8 -- 88
2020-11-12 03:00:00 6.4 3 Noroeste 10 Sudoeste 0 900.1 -- 85
2020-11-12 02:00:00 6.8 8 Sudoeste 14 Sudoeste 0 900.3 -- 85
2020-11-12 01:00:00 7 7 Sudoeste 15 Oeste 0 900.5 -- 85
2020-11-12 00:00:00 7.2 11 Sudoeste 19 Oeste 0 900.5 -- 83
2020-11-11 23:00:00 7 6 Sudoeste 14 Sudoeste 0 900.3 -- 81
2020-11-11 22:00:00 7.6 4 Sur 10 Sudoeste 0 900.1 -- 76
2020-11-11 21:00:00 7.8 4 Oeste 7 Sudoeste 0 900 -- 73
2020-11-11 20:00:00 8.6 3 Sudoeste 9 Oeste 0 900 -- 69
2020-11-11 19:00:00 9.6 5 Sudoeste 9 Oeste 0 899.8 -- 65
2020-11-11 18:00:00 11.7 6 Oeste 21 Oeste 0 899.5 -- 54
2020-11-11 17:00:00 14.2 10 Oeste 21 Oeste 0 899.4 -- 44
2020-11-11 16:00:00 14.9 10 Oeste 22 Oeste 0 899.2 -- 43
2020-11-11 15:00:00 15.4 9 Sudoeste 24 Oeste 0 898.9 -- 50
2020-11-11 14:00:00 15.2 10 Sudoeste 18 Oeste 0 899.5 -- 48
2020-11-11 13:00:00 13.9 10 Sudoeste 19 Sudoeste 0 900.1 -- 58
2020-11-11 12:00:00 12.1 5 Sur 12 Sudoeste 0 900.9 -- 70
2020-11-11 11:00:00 8.8 3 Sudoeste 8 Este 0 901.4 -- 80
2020-11-11 10:00:00 4.6 3 Sudeste 5 Sudeste 0 901.5 -- 99
2020-11-11 09:00:00 0.7 0 Calma 5 Sudeste 0 901.8 -- 100
2020-11-11 08:00:00 0.4 2 Nordeste 4 Noroeste 0 901.6 -- 99
2020-11-11 07:00:00 0.9 2 Norte 4 Norte 0 901.8 -- 99
2020-11-11 06:00:00 1.2 2 Norte 5 Nordeste 0 902 -- 99
2020-11-11 05:00:00 1.4 0 Calma 4 Nordeste 0 901.9 -- 97
2020-11-11 04:00:00 2.1 2 Norte 6 Nordeste 0 902.5 -- 97
2020-11-11 03:00:00 2.5 0 Calma 4 Este 0 903.1 -- 96
2020-11-11 02:00:00 3 3 Sudeste 4 Este 0 903.3 -- 95
2020-11-11 01:00:00 3.7 0 Calma 4 Nordeste 0 903.5 -- 94
2020-11-11 00:00:00 4.5 0 Calma 5 Este 0 903.5 -- 91
2020-11-10 23:00:00 5.7 3 Norte 6 Noroeste 0 903.7 -- 91
2020-11-10 22:00:00 6.6 0 Calma 6 Norte 0 903.4 -- 87
2020-11-10 21:00:00 7.7 3 Noroeste 5 Sudoeste 0 903 -- 81
2020-11-10 20:00:00 8.9 5 Sudoeste 8 Oeste 0 903 -- 74
2020-11-10 19:00:00 10.3 5 Oeste 10 Oeste 0 902.9 -- 70
2020-11-10 18:00:00 11.8 5 Oeste 13 Oeste 0 902.9 -- 65
2020-11-10 17:00:00 14.5 7 Sudoeste 14 Oeste 0 902.4 -- 56
2020-11-10 16:00:00 15.6 6 Oeste 15 Sudoeste 0 902.4 -- 52
2020-11-10 15:00:00 16 6 Sudoeste 16 Sudoeste 0 902.4 -- 53
2020-11-10 14:00:00 14.7 6 Sudoeste 15 Oeste 0 902.9 -- 58
2020-11-10 13:00:00 15.1 5 Sudoeste 13 Sur 0 903.2 -- 57
2020-11-10 12:00:00 13.6 3 Sudoeste 7 Sudoeste 0 903.4 -- 61
2020-11-10 11:00:00 10.6 3 Norte 7 Noroeste 0 903.5 -- 78
2020-11-10 10:00:00 5.2 2 Este 9 Este 0 903.3 -- 96
2020-11-10 09:00:00 3.6 3 Noroeste 8 Noroeste 0 903.1 -- 100
2020-11-10 08:00:00 2.1 3 Norte 8 Noroeste 0 902.5 -- 100
2020-11-10 07:00:00 1.8 3 Norte 7 Noroeste 0 902 -- 99
2020-11-10 06:00:00 2 3 Norte 6 Noroeste 0 901.9 -- 98
2020-11-10 05:00:00 2.1 3 Oeste 5 Oeste 0 901.8 -- 99
2020-11-10 04:00:00 2.6 3 Norte 7 Noroeste 0 901.7 -- 98
2020-11-10 03:00:00 2.8 0 Calma 5 Este 0 901.6 -- 97
2020-11-10 02:00:00 3.1 0 Calma 6 Nordeste 0 901.6 -- 94
2020-11-10 01:00:00 4.2 0 Calma 4 Noroeste 0 901.5 -- 96
2020-11-10 00:00:00 5.3 3 Norte 6 Noroeste 0 901.5 -- 94
2020-11-09 23:00:00 6.1 0 Calma 7 Norte 0 901.2 -- 90
2020-11-09 22:00:00 6.8 3 Noroeste 9 Noroeste 0 901.1 -- 91
2020-11-09 21:00:00 7.7 3 Noroeste 13 Oeste 0 900.8 -- 86
2020-11-09 20:00:00 8.9 7 Oeste 12 Oeste 0 900.5 -- 82
2020-11-09 19:00:00 9.6 4 Oeste 9 Oeste 0 900.1 -- 78
2020-11-09 18:00:00 11.3 6 Oeste 18 Noroeste 0 899.6 -- 71
2020-11-09 17:00:00 13.3 8 Norte 18 Noroeste 0 899.2 -- 65
2020-11-09 16:00:00 14.3 9 Noroeste 22 Noroeste 0 898.9 -- 61
2020-11-09 15:00:00 14.7 17 Oeste 27 Oeste 0 898.6 -- 55
2020-11-09 14:00:00 14.3 13 Oeste 23 Oeste 0 898.6 -- 58
2020-11-09 13:00:00 12.4 10 Oeste 20 Oeste 0 899 -- 74
2020-11-09 12:00:00 11.3 6 Sudoeste 13 Sudoeste 0 899.4 -- 85
2020-11-09 11:00:00 8 2 Sudoeste 6 Norte 0 899.5 -- 96
2020-11-09 10:00:00 6.7 0 Calma 5 Noroeste 0 899.2 -- 99
2020-11-09 09:00:00 5.1 3 Sudeste 5 Sudeste 0.2 898.8 -- 100
2020-11-09 08:00:00 4.6 4 Este 6 Este 0 897.9 -- 100
2020-11-09 07:00:00 4.1 2 Sudeste 3 Sudeste 0 897.7 -- 98
2020-11-09 06:00:00 4 0 Calma 6 Norte 0 897.4 -- 98
2020-11-09 05:00:00 4.1 0 Calma 4 Norte 0 897.3 -- 98
2020-11-09 04:00:00 4.3 2 Sudeste 5 Este 0 897.4 -- 98
2020-11-09 03:00:00 4.3 0 Calma 4 Este 0 897.9 -- 97
2020-11-09 02:00:00 4.6 0 Calma 4 Sudeste 0 897.6 -- 98
2020-11-09 01:00:00 4.6 0 Calma 4 Noroeste 0 898.1 -- 98
2020-11-09 00:00:00 4.7 3 Norte 6 Nordeste 0 898.4 -- 96
2020-11-08 23:00:00 5.3 0 Calma 6 Nordeste 0 898.5 -- 91
2020-11-08 22:00:00 6.5 3 Sur 8 Sur 0 898.2 -- 89
2020-11-08 21:00:00 6.9 2 Sudoeste 3 Sur 0 898.3 -- 88
2020-11-08 20:00:00 8.1 4 Sudoeste 12 Sur 0 898.2 -- 82
2020-11-08 19:00:00 9 5 Sudoeste 14 Sur 0 898.2 -- 80
2020-11-08 18:00:00 10.6 8 Sur 24 Sur 0 898 -- 75
2020-11-08 17:00:00 12.4 12 Sur 23 Sudoeste 0 897.7 -- 66
2020-11-08 16:00:00 12.7 8 Sudoeste 24 Sur 0 897.8 -- 67
2020-11-08 15:00:00 13.4 14 Sur 23 Sudoeste 0 898 -- 66
2020-11-08 14:00:00 11.8 7 Sur 17 Sur 0 898.1 -- 77
2020-11-08 13:00:00 10.9 9 Sur 25 Sur 0 898.7 -- 83
2020-11-08 12:00:00 10.9 12 Sudoeste 22 Sudoeste 0 899.4 -- 83
2020-11-08 11:00:00 8.8 5 Sur 14 Sur 0 899.5 -- 96
2020-11-08 10:00:00 7.9 6 Sudoeste 12 Sur 0 899.6 -- 97
2020-11-08 09:00:00 7.5 5 Sur 8 Sur 0 899.3 -- 99
2020-11-08 08:00:00 7.1 3 Este 5 Nordeste 0 899 -- 99
2020-11-08 07:00:00 7 2 Sudeste 4 Sur 0 899 -- 99
2020-11-08 06:00:00 6.9 2 Sur 4 Nordeste 0 899.1 -- 99
2020-11-08 05:00:00 6.6 2 Sudoeste 12 Sudoeste 0 899.1 -- 99
2020-11-08 04:00:00 6.5 4 Sudoeste 16 Sudoeste 0 899.1 -- 97
2020-11-08 03:00:00 7.2 8 Sur 16 Sudoeste 0 899.4 -- 96
2020-11-08 02:00:00 7.6 5 Sudoeste 12 Sur 0 899.4 -- 97
2020-11-08 01:00:00 8.3 6 Sudoeste 18 Sudoeste 0 899.6 -- 98
2020-11-08 00:00:00 8.4 9 Sudoeste 17 Sudoeste 0 899.3 -- 98
2020-11-07 23:00:00 8.8 8 Sudoeste 15 Sudoeste 0 899.2 -- 98
2020-11-07 22:00:00 9 7 Sudoeste 15 Sudoeste 0 898.8 -- 98
2020-11-07 21:00:00 9 10 Oeste 16 Oeste 0 898.3 -- 98
2020-11-07 20:00:00 9.2 5 Sudoeste 13 Sudoeste 0 897.9 -- 97
2020-11-07 19:00:00 9.2 6 Sudoeste 21 Sudoeste 0 897.3 -- 97
2020-11-07 18:00:00 9.7 10 Oeste 21 Oeste 0 896.3 -- 96
2020-11-07 17:00:00 9.9 6 Sudoeste 22 Sudoeste 0.2 896.1 -- 97
2020-11-07 16:00:00 9.6 9 Oeste 21 Sudoeste 1.8 895.8 -- 97
2020-11-07 15:00:00 9.9 10 Sudoeste 32 Sudoeste 0.8 895.1 -- 93
2020-11-07 14:00:00 12.2 15 Sudoeste 32 Sudoeste 0 894.5 -- 86
2020-11-07 13:00:00 11.4 13 Sudoeste 24 Sudoeste 0 894.2 -- 91
2020-11-07 12:00:00 10.4 12 Sur 21 Sudoeste 0 894.3 -- 94
2020-11-07 11:00:00 10.1 6 Sur 19 Sur 0.2 893.8 -- 98
2020-11-07 10:00:00 9.5 6 Sur 11 Sudoeste 0 893.1 -- 98
2020-11-07 09:00:00 8.9 5 Sur 13 Sur 0 892.9 -- 98
2020-11-07 08:00:00 8.5 10 Sudeste 18 Sudeste 0 892.1 -- 99
2020-11-07 07:00:00 8.8 4 Norte 24 Sudoeste 4.4 891.9 -- 99
2020-11-07 06:00:00 9.2 9 Oeste 30 Sudoeste 11.4 892.7 -- 98
2020-11-07 05:00:00 11.1 6 Sudeste 23 Sudeste 4.2 891.9 -- 99
2020-11-07 04:00:00 11.1 9 Este 41 Sudeste 1.2 892 -- 98
2020-11-07 03:00:00 11.4 13 Sudeste 25 Sudeste 0 893.5 -- 95
2020-11-07 02:00:00 11 9 Sudeste 26 Sudeste 0 893.7 -- 95
2020-11-07 01:00:00 11 9 Sudeste 27 Sudeste 0 894.4 -- 95
2020-11-07 00:00:00 11.3 13 Sudeste 31 Sudeste 0 894.6 -- 94
2020-11-06 23:00:00 11.7 13 Sudeste 41 Sudeste 0 895.2 -- 93
2020-11-06 22:00:00 11.9 17 Sudeste 39 Sudeste 0 895.1 -- 93
2020-11-06 21:00:00 11.8 16 Sudeste 37 Este 0 895 -- 95
2020-11-06 20:00:00 12 14 Sudeste 36 Sudeste 0 895.6 -- 95
2020-11-06 19:00:00 12.1 14 Sudeste 39 Sudeste 0 895.1 -- 96
2020-11-06 18:00:00 12.4 13 Sudeste 31 Sur 0 895.3 -- 95
2020-11-06 17:00:00 12.8 16 Sudeste 40 Sudeste 0 895 -- 93
2020-11-06 16:00:00 12.8 17 Sudeste 44 Sudeste 0 895.5 -- 93
2020-11-06 15:00:00 13.3 17 Sudeste 39 Sudeste 0.2 896 -- 88
2020-11-06 14:00:00 14.1 16 Sudeste 39 Sudeste 0 896.3 -- 85
2020-11-06 13:00:00 12.9 18 Sudeste 45 Sudeste 0 897 -- 87
2020-11-06 12:00:00 12.4 15 Este 34 Sudeste 0 898 -- 90
2020-11-06 11:00:00 11.8 11 Sudeste 28 Sudeste 0 898.6 0 93
2020-11-06 10:00:00 10.9 13 Este 24 Este 0 898.5 -- 95
2020-11-06 09:00:00 10.3 11 Este 25 Este 0 898.8 -- 96
2020-11-06 08:00:00 9.9 9 Este 19 Este 0 898.6 -- 97
2020-11-06 07:00:00 9.7 9 Este 19 Este 0 898.5 -- 99
2020-11-06 06:00:00 9.6 10 Este 24 Este 0 898.4 -- 100
2020-11-06 05:00:00 9.2 9 Este 23 Este 0 898.1 -- 99
2020-11-06 04:00:00 9.1 9 Este 22 Este 0 898.1 -- 99
2020-11-06 03:00:00 9.1 9 Sudeste 23 Sudeste 0 898.5 -- 98
2020-11-06 02:00:00 8.9 12 Sudeste 28 Sudeste 0 898.2 -- 98
2020-11-06 01:00:00 8.8 13 Sudeste 30 Sudeste 0 898.5 -- 98
2020-11-06 00:00:00 9 18 Sudeste 32 Sudeste 0 898.7 -- 98
2020-11-05 23:00:00 8.9 10 Sudeste 31 Sudeste 0.2 898.5 -- 98
2020-11-05 22:00:00 8.9 12 Sudeste 36 Este 0.4 898.7 -- 97
2020-11-05 21:00:00 8.9 15 Este 33 Este 2.2 898.8 -- 98
2020-11-05 20:00:00 9 13 Este 33 Este 0 899.1 -- 96
2020-11-05 19:00:00 9.2 14 Este 39 Este 0 899.2 -- 94
2020-11-05 18:00:00 9.2 12 Este 37 Sudeste 0 898.7 -- 92
2020-11-05 17:00:00 9.5 12 Este 30 Este 0 899 -- 90
2020-11-05 16:00:00 9.4 11 Este 32 Sudeste 0 899.1 -- 88
2020-11-05 15:00:00 10.1 12 Este 30 Este 0 899.2 -- 83
2020-11-05 14:00:00 11.7 14 Este 33 Sudeste 0 899.4 -- 73
2020-11-05 13:00:00 12.8 13 Este 32 Sudeste 0 900.1 -- 67
2020-11-05 12:00:00 12.1 18 Este 43 Este 0 900.8 -- 65
2020-11-05 11:00:00 11.4 19 Este 38 Este 0 900.9 -- 67
2020-11-05 10:00:00 9 16 Este 33 Este 0 900.9 -- 73
2020-11-05 09:00:00 6.6 10 Este 23 Este 0 900.8 -- 92
2020-11-05 08:00:00 6.2 8 Este 23 Este 0 900 -- 97
2020-11-05 07:00:00 5.7 10 Nordeste 23 Nordeste 0 900.3 -- 99
2020-11-05 06:00:00 5.4 13 Nordeste 25 Este 0 900.3 -- 100
2020-11-05 05:00:00 5.2 13 Nordeste 24 Nordeste 0 900.1 -- 99
2020-11-05 04:00:00 5.2 13 Nordeste 28 Nordeste 0 900.4 -- 99
2020-11-05 03:00:00 6.1 9 Este 17 Este 0 900.2 -- 96
2020-11-05 02:00:00 5.7 10 Este 23 Este 0 900 -- 95
2020-11-05 01:00:00 5.5 11 Este 22 Este 0 900 -- 95
2020-11-05 00:00:00 4.9 12 Nordeste 21 Este 0 899.8 -- 97
2020-11-04 23:00:00 4.7 12 Nordeste 28 Nordeste 0.2 899.9 -- 96
2020-11-04 22:00:00 4.7 15 Nordeste 24 Nordeste 0 899.3 -- 95
2020-11-04 21:00:00 4.7 11 Nordeste 26 Este 0 899 -- 94
2020-11-04 20:00:00 4.5 14 Nordeste 28 Nordeste 0.2 898.5 -- 92
2020-11-04 19:00:00 5.4 13 Este 26 Nordeste 0 898.1 -- 83
2020-11-04 18:00:00 5.7 13 Nordeste 27 Nordeste 0 897.5 -- 77
2020-11-04 17:00:00 6.6 13 Este 29 Este 0 897.4 -- 72
2020-11-04 16:00:00 7.6 13 Este 28 Nordeste 0 897.2 -- 68
2020-11-04 15:00:00 9.4 17 Este 28 Nordeste 0 896.8 -- 60
2020-11-04 14:00:00 9.8 13 Este 23 Este 0 897.1 -- 51
2020-11-04 13:00:00 9.1 12 Este 24 Este 0 897.7 -- 56
2020-11-04 12:00:00 6.8 12 Este 24 Nordeste 0 898.5 -- 64
2020-11-04 11:00:00 5.6 15 Nordeste 27 Nordeste 0 898.6 0.6 65
2020-11-04 10:00:00 4.4 13 Nordeste 27 Norte 0 898.7 -- 71
2020-11-04 09:00:00 3.7 11 Norte 26 Norte 0 898.2 -- 75
2020-11-04 08:00:00 3.6 14 Norte 28 Norte 0 898 -- 77
2020-11-04 07:00:00 4 16 Nordeste 31 Norte 0 898.5 -- 72
2020-11-04 06:00:00 4.1 13 Norte 28 Nordeste 0 898.8 -- 73
2020-11-04 05:00:00 4 14 Nordeste 26 Nordeste 0 899.3 -- 75
2020-11-04 04:00:00 4.1 15 Nordeste 30 Nordeste 0 899.6 -- 77
2020-11-04 03:00:00 4 12 Nordeste 23 Nordeste 0 900.2 -- 79
2020-11-04 02:00:00 4.4 10 Nordeste 24 Nordeste 0 900.8 -- 80
2020-11-04 01:00:00 4.7 13 Nordeste 27 Norte 0 901.7 -- 80
2020-11-04 00:00:00 5.1 9 Norte 25 Norte 0 902.3 -- 82
2020-11-03 23:00:00 5.4 9 Norte 28 Nordeste 0 902.9 -- 84
2020-11-03 22:00:00 5.6 10 Norte 22 Nordeste 0 903.3 -- 85
2020-11-03 21:00:00 6 14 Nordeste 30 Nordeste 0 903.5 -- 83
2020-11-03 20:00:00 6.7 17 Nordeste 30 Nordeste 0 903.7 -- 80
2020-11-03 19:00:00 7.5 18 Nordeste 38 Nordeste 0 903.7 -- 80
2020-11-03 18:00:00 8.3 17 Nordeste 34 Nordeste 0 903.3 -- 77
2020-11-03 17:00:00 8.3 14 Norte 34 Nordeste 0 903.3 -- 77
2020-11-03 16:00:00 8.6 17 Norte 41 Norte 0 903.4 -- 76
2020-11-03 15:00:00 9.1 16 Norte 36 Norte 0 903.2 -- 77
2020-11-03 14:00:00 9 16 Norte 38 Nordeste 0 903.4 -- 79
2020-11-03 13:00:00 9 18 Nordeste 36 Nordeste 0 903.7 -- 81
2020-11-03 12:00:00 9.2 18 Nordeste 37 Nordeste 0 903.8 -- 80
2020-11-03 11:00:00 9.3 15 Nordeste 29 Norte 0 903.4 -- 82
2020-11-03 10:00:00 8.8 13 Nordeste 27 Nordeste 0.4 903 -- 88
2020-11-03 09:00:00 9 12 Nordeste 26 Nordeste 0.4 902.7 -- 89
2020-11-03 08:00:00 9.1 11 Nordeste 19 Nordeste 2.8 901.7 -- 93
2020-11-03 07:00:00 10.1 8 Este 18 Nordeste 0.4 901 -- 99
2020-11-03 06:00:00 9.9 5 Nordeste 8 Nordeste 0 901.1 -- 95
2020-11-03 05:00:00 9.7 2 Este 4 Este 0 900.9 -- 95
2020-11-03 04:00:00 9.3 0 Calma 5 Sudeste 0 900.8 -- 96
2020-11-03 03:00:00 9.2 3 Nordeste 6 Este 0 900.9 -- 95
2020-11-03 02:00:00 10.3 2 Norte 10 Oeste 0 900.8 -- 92
2020-11-03 01:00:00 9.9 0 Calma 3 Sudeste 0 900.8 -- 93
2020-11-03 00:00:00 10.3 2 Nordeste 11 Oeste 0 900.9 -- 90
2020-11-02 23:00:00 10.5 4 Sudoeste 6 Oeste 0 901 -- 88
2020-11-02 22:00:00 11.3 0 Calma 4 Oeste 0 901.1 -- 86
2020-11-02 21:00:00 12.2 2 Noroeste 5 Oeste 0 901.1 -- 84
2020-11-02 20:00:00 12.6 0 Calma 9 Noroeste 0 901.1 -- 82
2020-11-02 19:00:00 13.6 3 Noroeste 8 Sudoeste 0 900.5 -- 77
2020-11-02 18:00:00 15.1 3 Oeste 13 Oeste 0 900 -- 69
2020-11-02 17:00:00 16.6 5 Noroeste 17 Oeste 0 899.8 -- 65
2020-11-02 16:00:00 17.9 9 Oeste 19 Noroeste 0 899.7 -- 58
2020-11-02 15:00:00 18 6 Oeste 27 Oeste 0 899.8 -- 60
2020-11-02 14:00:00 17 7 Oeste 28 Oeste 0 900.1 -- 66
2020-11-02 13:00:00 16.4 15 Oeste 27 Oeste 0 900.7 -- 69
2020-11-02 12:00:00 18.1 13 Oeste 30 Oeste 0 901 -- 64
2020-11-02 11:00:00 16.5 11 Oeste 27 Oeste 0 900.9 -- 72
2020-11-02 10:00:00 13.7 9 Oeste 16 Oeste 0 901 -- 88
2020-11-02 09:00:00 11.7 8 Oeste 15 Sudoeste 0 900.7 -- 92
2020-11-02 08:00:00 10.5 9 Sudoeste 16 Oeste 0 900.2 -- 95
2020-11-02 07:00:00 10.6 9 Oeste 15 Oeste 0 900 -- 94
2020-11-02 06:00:00 10.4 5 Sudoeste 10 Sudoeste 0 900.1 -- 93
2020-11-02 05:00:00 10.5 6 Sudoeste 9 Sudoeste 0 900 -- 92
2020-11-02 04:00:00 10.7 5 Sudoeste 10 Sudoeste 0 900.1 -- 92
2020-11-02 03:00:00 10.7 6 Sudoeste 11 Sudoeste 0 900.4 -- 90
2020-11-02 02:00:00 10.8 5 Sudoeste 10 Sudoeste 0 900.5 -- 87
2020-11-02 01:00:00 10.4 4 Sudoeste 6 Sudoeste 0 900.9 -- 88
2020-11-02 00:00:00 10.2 0 Calma 4 Oeste 0 901.2 -- 85